Kansas City, Missouri
Traffic Map
Current Weather Conditions
Kansas City, Missouri
Scattered Clouds
Scattered Clouds
23°
Feels Like: 23°
Wind Chill: 23° Ceiling: Unl
Heat Index: 23° Visibility: 10mi
Dew Point: 21° Wind: 8mph
Humidity: 87% Direction: 70° (ENE)
Pressure: 29.83in Gusts: 0mph
Raw Report DataKMKC 020754Z 07007KT 10SM SCT011 23/21 A2983 RMK AO2 SLP092 T02330211
Traffic Incident Summary
Active as of:
Severity:
Category:
InformationThere was an issue retrieving the traffic information for this location. Please try a different location or try again shortly.
Advertisements
Track Severe Weather on mobile